createdAt,value
2018-08-17T00:00:25.267Z,0.00
2018-08-17T00:01:25.247Z,0.00
2018-08-17T00:02:25.227Z,0.00
2018-08-17T00:03:25.199Z,0.00
2018-08-17T00:04:25.175Z,0.00
2018-08-17T00:05:25.245Z,0.00
2018-08-17T00:06:25.130Z,0.00
2018-08-17T00:07:25.103Z,0.00
2018-08-17T00:08:25.078Z,0.00
2018-08-17T00:09:25.055Z,0.00
2018-08-17T00:10:25.036Z,0.00
2018-08-17T00:11:25.009Z,0.00
2018-08-17T00:12:24.984Z,0.00
2018-08-17T00:13:24.961Z,0.00
2018-08-17T00:14:24.942Z,0.00
2018-08-17T00:15:24.914Z,0.00
2018-08-17T00:16:24.890Z,0.00
2018-08-17T00:17:24.867Z,0.00
2018-08-17T00:18:25.046Z,0.00
2018-08-17T00:19:25.032Z,0.00
2018-08-17T00:20:24.803Z,0.00
2018-08-17T00:21:24.773Z,0.00
2018-08-17T00:22:24.748Z,0.00
2018-08-17T00:23:24.730Z,0.00
2018-08-17T00:24:24.702Z,0.00
2018-08-17T00:25:24.678Z,0.00
2018-08-17T00:26:24.655Z,0.00
2018-08-17T00:27:24.632Z,0.00
2018-08-17T00:28:24.608Z,0.00
2018-08-17T00:29:24.585Z,0.00
2018-08-17T00:30:24.564Z,0.00
2018-08-17T00:31:24.538Z,0.00
2018-08-17T00:32:24.513Z,0.00
2018-08-17T00:33:24.490Z,0.00
2018-08-17T00:34:24.467Z,0.00
2018-08-17T00:35:24.443Z,0.00
2018-08-17T00:36:24.417Z,0.00
2018-08-17T00:38:06.748Z,0.00
2018-08-17T00:39:06.527Z,0.00
2018-08-17T00:40:06.500Z,0.00
2018-08-17T00:41:06.477Z,0.00
2018-08-17T00:42:06.453Z,0.00
2018-08-17T00:43:06.428Z,0.00
2018-08-17T00:44:06.405Z,0.00
2018-08-17T00:45:06.387Z,0.00
2018-08-17T00:46:06.359Z,0.00
2018-08-17T00:47:06.333Z,0.00
2018-08-17T00:48:06.377Z,0.00
2018-08-17T00:49:06.291Z,0.00
2018-08-17T00:50:06.263Z,0.00
2018-08-17T00:51:06.245Z,0.00
2018-08-17T00:52:06.216Z,0.00
2018-08-17T00:53:06.192Z,0.00
2018-08-17T00:54:06.272Z,0.00
2018-08-17T00:55:06.144Z,0.00
2018-08-17T00:56:06.120Z,0.00
2018-08-17T00:57:06.098Z,0.00
2018-08-17T00:58:06.074Z,0.00
2018-08-17T00:59:06.049Z,0.00
2018-08-17T01:00:06.030Z,0.00
2018-08-17T01:03:54.820Z,0.00
2018-08-17T01:04:54.786Z,0.00
2018-08-17T01:08:01.214Z,0.00
2018-08-17T01:09:00.991Z,0.00
2018-08-17T01:10:01.165Z,0.00
2018-08-17T01:11:00.939Z,0.00
2018-08-17T01:12:00.916Z,0.00
2018-08-17T01:13:00.889Z,0.00
2018-08-17T01:14:00.866Z,0.00
2018-08-17T01:15:00.848Z,0.00
2018-08-17T01:16:00.820Z,0.00
2018-08-17T01:17:00.793Z,0.00
2018-08-17T01:18:00.774Z,0.00
2018-08-17T01:19:00.749Z,0.00
2018-08-17T01:20:00.722Z,0.00
2018-08-17T01:21:00.696Z,0.00
2018-08-17T01:22:00.674Z,0.00
2018-08-17T01:23:00.650Z,0.00
2018-08-17T01:24:00.625Z,0.00
2018-08-17T01:25:00.601Z,0.00
2018-08-17T01:26:00.576Z,0.00
2018-08-17T01:27:00.554Z,0.00
2018-08-17T01:28:00.530Z,0.00
2018-08-17T01:29:00.504Z,0.00
2018-08-17T01:30:00.482Z,0.00
2018-08-17T01:31:00.458Z,0.00
2018-08-17T01:32:00.434Z,0.00
2018-08-17T01:33:00.410Z,0.00
2018-08-17T01:34:00.386Z,0.00
2018-08-17T01:35:00.362Z,0.00
2018-08-17T01:36:00.339Z,0.00
2018-08-17T01:37:00.314Z,0.00
2018-08-17T01:38:00.293Z,0.00
2018-08-17T01:39:00.266Z,0.00
2018-08-17T01:40:00.246Z,0.00
2018-08-17T01:41:00.218Z,0.00
2018-08-17T01:42:00.195Z,0.00
2018-08-17T01:43:00.173Z,0.00
2018-08-17T01:44:00.148Z,0.00
2018-08-17T01:45:00.130Z,0.00
2018-08-17T01:46:00.099Z,0.00
2018-08-17T01:47:00.075Z,0.00
2018-08-17T01:48:00.052Z,0.00
2018-08-17T01:49:00.027Z,0.00
2018-08-17T01:50:00.010Z,0.00
2018-08-17T01:50:59.980Z,0.00
2018-08-17T01:51:59.956Z,0.00
2018-08-17T01:52:59.936Z,0.00
2018-08-17T01:53:59.913Z,0.00
2018-08-17T01:54:59.885Z,0.00
2018-08-17T01:55:59.867Z,0.00
2018-08-17T01:56:59.838Z,0.00
2018-08-17T01:57:59.814Z,0.00
2018-08-17T01:58:59.789Z,0.00
2018-08-17T01:59:59.765Z,0.00
2018-08-17T02:00:59.744Z,0.00
2018-08-17T02:01:59.717Z,0.00
2018-08-17T02:02:59.695Z,0.00
2018-08-17T02:03:59.669Z,0.00
2018-08-17T02:04:59.644Z,0.00
2018-08-17T02:05:59.620Z,0.00
2018-08-17T02:06:59.597Z,0.00
2018-08-17T02:07:59.573Z,0.00
2018-08-17T02:08:59.549Z,0.00
2018-08-17T02:09:59.525Z,0.00
2018-08-17T02:10:59.502Z,0.00
2018-08-17T02:11:59.479Z,0.00
2018-08-17T02:12:59.953Z,0.00
2018-08-17T02:13:59.429Z,0.00
2018-08-17T02:14:59.406Z,0.00
2018-08-17T02:15:59.382Z,0.00
2018-08-17T02:16:59.360Z,0.00
2018-08-17T02:17:59.341Z,0.00
2018-08-17T02:18:59.310Z,0.00
2018-08-17T02:19:59.289Z,0.00
2018-08-17T02:20:59.261Z,0.00
2018-08-17T02:21:59.239Z,0.00
2018-08-17T02:22:59.213Z,0.00
2018-08-17T02:23:59.197Z,0.00
2018-08-17T02:24:59.165Z,0.00
2018-08-17T02:25:59.141Z,0.00
2018-08-17T02:26:59.117Z,0.00
2018-08-17T02:27:59.093Z,0.00
2018-08-17T02:28:59.069Z,0.00
2018-08-17T02:29:59.045Z,0.00
2018-08-17T02:30:59.022Z,0.00
2018-08-17T02:31:59.002Z,0.00
2018-08-17T02:32:58.977Z,0.00
2018-08-17T02:33:58.949Z,0.00
2018-08-17T02:34:58.925Z,0.00
2018-08-17T02:35:58.906Z,0.00
2018-08-17T02:36:58.889Z,0.00
2018-08-17T02:37:58.853Z,0.00
2018-08-17T02:38:58.830Z,0.00
2018-08-17T02:39:58.807Z,0.00
2018-08-17T02:40:58.781Z,0.00
2018-08-17T02:41:58.763Z,0.00
2018-08-17T02:42:58.733Z,0.00
2018-08-17T02:43:58.709Z,0.00
2018-08-17T02:44:58.687Z,0.00
2018-08-17T02:45:58.675Z,0.00
2018-08-17T02:46:58.637Z,0.00
2018-08-17T02:47:58.613Z,0.00
2018-08-17T02:48:58.591Z,0.00
2018-08-17T02:49:58.564Z,0.00
2018-08-17T02:50:58.542Z,0.00
2018-08-17T02:51:58.515Z,0.00
2018-08-17T02:52:58.492Z,0.00
2018-08-17T02:53:58.477Z,0.00
2018-08-17T02:54:58.444Z,0.00
2018-08-17T02:55:58.421Z,0.00
2018-08-17T02:56:58.396Z,0.00
2018-08-17T02:57:58.371Z,0.00
2018-08-17T02:58:58.348Z,0.00
2018-08-17T02:59:58.324Z,0.00
2018-08-17T03:00:58.299Z,0.00
2018-08-17T03:01:58.275Z,0.00
2018-08-17T03:02:58.250Z,0.00
2018-08-17T03:03:58.228Z,0.00
2018-08-17T03:04:58.206Z,0.00
2018-08-17T03:05:58.180Z,0.00
2018-08-17T03:06:58.155Z,0.00
2018-08-17T03:07:58.131Z,0.00
2018-08-17T03:08:58.106Z,0.00
2018-08-17T03:09:58.083Z,0.00
2018-08-17T03:10:58.065Z,0.00
2018-08-17T03:11:58.049Z,0.00
2018-08-17T03:12:58.011Z,0.00
2018-08-17T03:13:57.986Z,0.00
2018-08-17T03:14:57.965Z,0.00
2018-08-17T03:15:57.939Z,0.00
2018-08-17T03:16:57.917Z,0.00
2018-08-17T03:17:57.893Z,0.00
2018-08-17T03:18:57.866Z,0.00
2018-08-17T03:19:57.841Z,4.00
2018-08-17T03:20:57.821Z,4.00
2018-08-17T03:21:57.824Z,4.00
2018-08-17T03:22:57.775Z,0.00
2018-08-17T03:23:57.761Z,4.00
2018-08-17T03:24:57.761Z,4.00
2018-08-17T03:25:57.696Z,4.00
2018-08-17T03:26:57.672Z,4.00
2018-08-17T03:27:57.648Z,8.00
2018-08-17T03:28:57.622Z,4.00
2018-08-17T03:29:57.601Z,8.00
2018-08-17T03:30:57.579Z,8.00
2018-08-17T03:31:57.553Z,8.00
2018-08-17T03:32:57.526Z,12.00
2018-08-17T03:33:57.505Z,16.00
2018-08-17T03:34:57.479Z,20.00
2018-08-17T03:35:57.456Z,20.00
2018-08-17T03:36:57.429Z,24.00
2018-08-17T03:37:57.413Z,28.00
2018-08-17T03:38:57.382Z,32.00
2018-08-17T03:39:57.358Z,36.00
2018-08-17T03:40:57.333Z,44.00
2018-08-17T03:41:57.310Z,48.00
2018-08-17T03:42:57.289Z,60.00
2018-08-17T03:43:57.265Z,64.00
2018-08-17T03:44:57.236Z,80.00
2018-08-17T03:45:57.213Z,92.00
2018-08-17T03:46:57.189Z,104.00
2018-08-17T03:47:57.165Z,116.00
2018-08-17T03:48:57.140Z,132.00
2018-08-17T03:49:57.132Z,152.00
2018-08-17T03:50:57.092Z,176.00
2018-08-17T03:51:57.073Z,200.00
2018-08-17T03:52:57.046Z,224.00
2018-08-17T03:53:57.022Z,252.00
2018-08-17T03:54:56.994Z,280.00
2018-08-17T03:55:56.971Z,312.00
2018-08-17T03:56:56.945Z,340.00
2018-08-17T03:57:56.921Z,376.00
2018-08-17T03:58:56.898Z,412.00
2018-08-17T03:59:56.876Z,452.00
2018-08-17T04:00:56.855Z,492.00
2018-08-17T04:01:56.825Z,536.00
2018-08-17T04:02:56.800Z,584.00
2018-08-17T04:03:56.778Z,640.00
2018-08-17T04:04:56.752Z,692.00
2018-08-17T04:05:56.729Z,748.00
2018-08-17T04:06:56.705Z,804.00
2018-08-17T04:07:56.681Z,860.00
2018-08-17T04:08:56.656Z,924.00
2018-08-17T04:09:56.635Z,988.00
2018-08-17T04:10:56.608Z,1052.00
2018-08-17T04:11:56.599Z,1116.00
2018-08-17T04:12:56.559Z,1184.00
2018-08-17T04:13:56.539Z,1252.00
2018-08-17T04:14:56.516Z,1340.00
2018-08-17T04:15:56.486Z,1436.00
2018-08-17T04:16:56.462Z,1528.00
2018-08-17T04:17:56.438Z,1620.00
2018-08-17T04:18:56.414Z,1712.00
2018-08-17T04:19:56.389Z,1812.00
2018-08-17T04:20:56.365Z,1912.00
2018-08-17T04:21:56.341Z,2008.00
2018-08-17T04:22:56.317Z,2108.00
2018-08-17T04:23:56.429Z,2228.00
2018-08-17T04:24:56.269Z,2360.00
2018-08-17T04:25:56.244Z,2484.00
2018-08-17T04:26:56.222Z,2624.00
2018-08-17T04:27:56.198Z,2780.00
2018-08-17T04:28:56.172Z,2920.00
2018-08-17T04:29:56.158Z,3052.00
2018-08-17T04:30:56.127Z,3172.00
2018-08-17T04:31:56.101Z,3296.00
2018-08-17T04:32:56.227Z,3412.00
2018-08-17T04:33:56.052Z,3532.00
2018-08-17T04:34:56.029Z,3652.00
2018-08-17T04:35:56.005Z,3812.00
2018-08-17T04:36:55.989Z,4004.00
2018-08-17T04:37:55.957Z,4204.00
2018-08-17T04:38:55.938Z,4408.00
2018-08-17T04:39:55.910Z,4636.00
2018-08-17T04:40:55.885Z,4864.00
2018-08-17T04:41:55.860Z,5076.00
2018-08-17T04:42:55.839Z,5232.00
2018-08-17T04:43:55.814Z,5288.00
2018-08-17T04:44:55.789Z,5260.00
2018-08-17T04:45:55.768Z,5256.00
2018-08-17T04:46:55.743Z,5304.00
2018-08-17T04:47:55.720Z,5408.00
2018-08-17T04:48:55.696Z,5540.00
2018-08-17T04:49:55.672Z,5676.00
2018-08-17T04:50:55.649Z,5824.00
2018-08-17T04:51:55.626Z,6020.00
2018-08-17T04:52:55.601Z,6212.00
2018-08-17T04:53:55.579Z,6336.00
2018-08-17T04:54:55.563Z,6440.00
2018-08-17T04:55:55.537Z,6716.00
2018-08-17T04:56:55.510Z,6864.00
2018-08-17T04:57:55.485Z,6904.00
2018-08-17T04:58:55.462Z,6868.00
2018-08-17T04:59:55.439Z,6688.00
2018-08-17T05:00:55.414Z,6736.00
2018-08-17T05:01:55.395Z,6604.00
2018-08-17T05:02:55.369Z,6316.00
2018-08-17T05:03:55.347Z,6300.00
2018-08-17T05:04:55.322Z,6556.00
2018-08-17T05:05:55.306Z,6876.00
2018-08-17T05:06:55.279Z,7096.00
2018-08-17T05:07:55.254Z,7476.00
2018-08-17T05:08:55.284Z,7844.00
2018-08-17T05:09:55.208Z,8232.00
2018-08-17T05:10:55.185Z,8604.00
2018-08-17T05:11:55.169Z,8940.00
2018-08-17T05:12:55.142Z,9180.00
2018-08-17T05:13:55.116Z,9276.00
2018-08-17T05:14:55.096Z,9184.00
2018-08-17T05:15:55.070Z,9036.00
2018-08-17T05:16:55.047Z,8988.00
2018-08-17T05:17:55.024Z,9052.00
2018-08-17T05:18:55.002Z,9208.00
2018-08-17T05:19:54.979Z,9504.00
2018-08-17T05:20:54.956Z,9844.00
2018-08-17T05:21:54.934Z,9992.00
2018-08-17T05:22:54.911Z,10116.00
2018-08-17T05:23:54.890Z,9464.00
2018-08-17T05:24:54.864Z,8968.00
2018-08-17T05:25:54.842Z,8592.00
2018-08-17T05:26:54.821Z,8380.00
2018-08-17T05:27:54.797Z,8436.00
2018-08-17T05:28:54.773Z,8144.00
2018-08-17T05:29:54.750Z,7556.00
2018-08-17T05:30:54.729Z,7120.00
2018-08-17T05:31:54.706Z,6872.00
2018-08-17T05:32:54.686Z,6916.00
2018-08-17T05:33:54.661Z,7060.00
2018-08-17T05:34:54.637Z,6908.00
2018-08-17T05:35:54.625Z,6668.00
2018-08-17T05:36:54.591Z,6216.00
2018-08-17T05:37:54.568Z,5656.00
2018-08-17T05:38:54.547Z,5212.00
2018-08-17T05:39:54.524Z,4932.00
2018-08-17T05:40:54.501Z,4680.00
2018-08-17T05:41:54.478Z,4724.00
2018-08-17T05:42:54.454Z,5032.00
2018-08-17T05:43:54.432Z,5628.00
2018-08-17T05:44:54.413Z,6496.00
2018-08-17T05:45:54.386Z,7256.00
2018-08-17T05:46:54.364Z,7712.00
2018-08-17T05:47:54.341Z,8132.00
2018-08-17T05:48:54.317Z,8204.00
2018-08-17T05:49:54.295Z,8324.00
2018-08-17T05:50:54.273Z,8544.00
2018-08-17T05:51:54.250Z,8700.00
2018-08-17T05:52:54.227Z,9024.00
2018-08-17T05:53:54.204Z,9536.00
2018-08-17T05:54:54.181Z,10300.00
2018-08-17T05:55:54.160Z,11124.00
2018-08-17T05:56:54.135Z,11664.00
2018-08-17T05:57:54.117Z,12028.00
2018-08-17T05:58:54.090Z,12472.00
2018-08-17T05:59:54.072Z,13120.00
2018-08-17T06:00:54.052Z,13964.00
2018-08-17T06:01:54.024Z,14792.00
2018-08-17T06:02:54.152Z,15752.00
2018-08-17T06:03:53.977Z,16896.00
2018-08-17T06:04:53.954Z,17952.00
2018-08-17T06:05:53.938Z,22496.00
2018-08-17T06:06:53.908Z,24128.00
2018-08-17T06:07:53.887Z,24704.00
2018-08-17T06:08:54.068Z,23552.00
2018-08-17T06:09:53.859Z,22848.00
2018-08-17T06:10:53.896Z,22368.00
2018-08-17T06:11:53.801Z,20096.00
2018-08-17T06:12:53.777Z,20832.00
2018-08-17T06:13:53.757Z,14992.00
2018-08-17T06:14:53.730Z,15584.00
2018-08-17T06:15:53.710Z,11012.00
2018-08-17T06:16:53.687Z,11080.00
2018-08-17T06:17:53.666Z,11884.00
2018-08-17T06:18:53.847Z,12256.00
2018-08-17T06:19:53.622Z,12780.00
2018-08-17T06:20:53.600Z,13532.00
2018-08-17T06:21:53.580Z,14240.00
2018-08-17T06:22:53.557Z,14704.00
2018-08-17T06:23:53.537Z,14540.00
2018-08-17T06:24:53.514Z,13532.00
2018-08-17T06:25:53.495Z,12080.00
2018-08-17T06:26:53.477Z,10796.00
2018-08-17T06:27:53.450Z,9748.00
2018-08-17T06:28:53.428Z,9008.00
2018-08-17T06:29:53.410Z,8672.00
2018-08-17T06:30:53.389Z,8196.00
2018-08-17T06:31:53.363Z,7864.00
2018-08-17T06:32:53.343Z,8140.00
2018-08-17T06:33:53.328Z,9068.00
2018-08-17T06:34:53.298Z,10664.00
2018-08-17T06:35:53.280Z,12500.00
2018-08-17T06:36:53.255Z,14124.00
2018-08-17T06:37:53.434Z,15144.00
2018-08-17T06:38:53.216Z,15720.00
2018-08-17T06:39:53.188Z,16068.00
2018-08-17T06:40:53.170Z,16280.00
2018-08-17T06:41:53.150Z,16552.00
2018-08-17T06:42:53.123Z,16876.00
2018-08-17T06:43:53.112Z,16356.00
2018-08-17T06:44:53.079Z,15864.00
2018-08-17T06:45:53.262Z,14704.00
2018-08-17T06:46:53.036Z,14340.00
2018-08-17T06:47:53.217Z,14312.00
2018-08-17T06:48:52.993Z,14884.00
2018-08-17T06:49:52.972Z,15496.00
2018-08-17T06:50:53.061Z,16340.00
2018-08-17T06:51:52.929Z,18464.00
2018-08-17T06:52:53.106Z,19136.00
2018-08-17T06:53:52.886Z,18720.00
2018-08-17T06:54:52.862Z,17824.00
2018-08-17T06:55:52.841Z,16604.00
2018-08-17T06:56:52.819Z,15880.00
2018-08-17T06:57:52.797Z,15988.00
2018-08-17T06:58:52.777Z,17184.00
2018-08-17T06:59:52.756Z,18880.00
2018-08-17T07:00:52.735Z,20992.00
2018-08-17T07:01:52.715Z,23360.00
2018-08-17T07:02:52.690Z,26464.00
2018-08-17T07:03:52.871Z,36736.00
2018-08-17T07:04:52.848Z,31744.00
2018-08-17T07:05:52.833Z,30656.00
2018-08-17T07:06:52.807Z,31392.00
2018-08-17T07:07:52.789Z,50304.00
2018-08-17T07:08:52.949Z,53856.00
2018-08-17T07:09:52.745Z,35328.00
2018-08-17T07:10:52.725Z,29088.00
2018-08-17T07:11:52.705Z,27872.00
2018-08-17T07:12:52.481Z,26976.00
2018-08-17T07:13:52.462Z,26432.00
2018-08-17T07:14:52.443Z,31616.00
2018-08-17T07:16:34.794Z,45792.00
2018-08-17T07:17:34.760Z,38240.00
2018-08-17T07:18:34.739Z,26464.00
2018-08-17T07:19:34.723Z,25792.00
2018-08-17T07:20:34.702Z,25888.00
2018-08-17T07:21:34.733Z,26816.00
2018-08-17T07:22:34.467Z,28832.00
2018-08-17T07:23:34.644Z,26240.00
2018-08-17T07:24:34.421Z,25024.00
2018-08-17T07:25:34.405Z,23680.00
2018-08-17T07:26:34.383Z,22528.00
2018-08-17T07:27:34.429Z,22240.00
2018-08-17T07:28:34.343Z,22240.00
2018-08-17T07:29:34.324Z,25216.00
2018-08-17T07:30:34.304Z,22656.00
2018-08-17T07:31:34.486Z,23008.00
2018-08-17T07:32:34.281Z,24544.00
2018-08-17T07:33:34.253Z,24352.00
2018-08-17T07:34:37.455Z,25088.00
2018-08-17T07:35:34.239Z,26656.00
2018-08-17T07:36:34.187Z,28928.00
2018-08-17T07:37:34.165Z,30944.00
2018-08-17T07:38:34.355Z,31104.00
2018-08-17T07:39:34.128Z,29664.00
2018-08-17T07:40:34.310Z,28576.00
2018-08-17T07:41:34.135Z,27968.00
2018-08-17T07:42:34.070Z,26816.00
2018-08-17T07:43:34.051Z,24768.00
2018-08-17T07:44:34.029Z,21888.00
2018-08-17T07:45:34.009Z,19520.00
2018-08-17T07:46:33.989Z,17952.00
2018-08-17T07:47:33.970Z,16620.00
2018-08-17T07:48:33.955Z,15624.00
2018-08-17T07:49:33.930Z,14992.00
2018-08-17T07:50:33.911Z,14868.00
2018-08-17T07:51:33.891Z,15016.00
2018-08-17T07:52:33.875Z,14884.00
2018-08-17T07:53:33.851Z,14256.00
2018-08-17T07:54:33.830Z,13640.00
2018-08-17T07:55:33.820Z,13924.00
2018-08-17T07:56:33.790Z,15472.00
2018-08-17T07:57:33.770Z,18560.00
2018-08-17T07:58:33.752Z,22656.00
2018-08-17T07:59:33.729Z,26112.00
2018-08-17T08:00:33.709Z,27552.00
2018-08-17T08:01:33.689Z,27200.00
2018-08-17T08:02:33.673Z,26688.00
2018-08-17T08:03:33.656Z,27360.00
2018-08-17T08:04:33.627Z,28928.00
2018-08-17T08:05:33.610Z,31392.00
2018-08-17T08:06:33.586Z,34080.00
2018-08-17T08:07:33.566Z,35232.00
2018-08-17T08:08:33.546Z,32032.00
2018-08-17T08:09:33.525Z,32480.00
2018-08-17T08:10:33.505Z,32480.00
2018-08-17T08:11:33.486Z,34944.00
2018-08-17T08:12:33.466Z,37888.00
2018-08-17T08:13:33.499Z,40160.00
2018-08-17T08:14:33.435Z,44896.00
2018-08-17T08:15:33.406Z,40512.00
2018-08-17T08:16:33.391Z,32640.00
2018-08-17T08:17:33.370Z,31616.00
2018-08-17T08:18:33.351Z,32032.00
2018-08-17T08:19:33.328Z,33792.00
2018-08-17T08:20:33.511Z,35712.00
2018-08-17T08:21:34.099Z,38144.00
2018-08-17T08:22:33.473Z,38912.00
2018-08-17T08:23:33.251Z,37088.00
2018-08-17T08:24:33.435Z,35040.00
2018-08-17T08:25:33.419Z,34368.00
2018-08-17T08:26:33.194Z,34720.00
2018-08-17T08:27:33.176Z,34976.00
2018-08-17T08:28:33.359Z,35104.00
2018-08-17T08:29:33.747Z,41920.00
2018-08-17T08:30:33.326Z,40800.00
2018-08-17T08:31:33.101Z,45280.00
2018-08-17T08:32:33.294Z,42624.00
2018-08-17T08:33:33.265Z,42592.00
2018-08-17T08:34:33.046Z,44480.00
2018-08-17T08:35:33.027Z,44512.00
2018-08-17T08:36:33.009Z,56192.00
2018-08-17T08:37:32.990Z,45600.00
2018-08-17T08:38:32.973Z,47264.00
2018-08-17T08:39:33.162Z,54528.00
2018-08-17T08:40:33.138Z,52704.00
2018-08-17T08:41:33.120Z,59136.00
2018-08-17T08:42:33.101Z,49280.00
2018-08-17T08:43:33.085Z,39008.00
2018-08-17T08:44:32.864Z,35168.00
2018-08-17T08:45:33.100Z,33920.00
2018-08-17T08:46:33.031Z,34624.00
2018-08-17T08:47:32.811Z,34496.00
2018-08-17T08:48:32.794Z,35712.00
2018-08-17T08:49:32.778Z,46688.00
2018-08-17T08:50:32.758Z,36160.00
2018-08-17T08:51:32.741Z,37632.00
2018-08-17T08:52:32.725Z,32640.00
2018-08-17T08:53:32.706Z,32704.00
2018-08-17T08:54:32.689Z,33856.00
2018-08-17T08:55:32.681Z,35104.00
2018-08-17T08:56:32.656Z,37376.00
2018-08-17T08:57:32.643Z,39008.00
2018-08-17T08:58:32.624Z,36000.00
2018-08-17T08:59:32.602Z,32960.00
2018-08-17T09:00:32.589Z,30368.00
2018-08-17T09:01:32.594Z,28704.00
2018-08-17T09:02:32.550Z,28576.00
2018-08-17T09:03:32.534Z,30112.00
2018-08-17T09:04:32.517Z,33056.00
2018-08-17T09:05:32.497Z,37280.00
2018-08-17T09:06:32.477Z,42912.00
2018-08-17T09:07:32.461Z,46944.00
2018-08-17T09:08:32.453Z,55808.00
2018-08-17T09:09:32.424Z,46048.00
2018-08-17T09:10:32.408Z,40608.00
2018-08-17T09:11:32.388Z,37408.00
2018-08-17T09:12:32.372Z,38560.00
2018-08-17T09:13:32.360Z,40928.00
2018-08-17T09:14:32.340Z,42848.00
2018-08-17T09:15:32.318Z,41920.00
2018-08-17T09:16:32.301Z,38624.00
2018-08-17T09:17:32.281Z,34112.00
2018-08-17T09:18:32.263Z,29920.00
2018-08-17T09:19:32.246Z,26592.00
2018-08-17T09:20:32.247Z,24224.00
2018-08-17T09:21:32.210Z,22528.00
2018-08-17T09:22:32.191Z,21152.00
2018-08-17T09:23:32.173Z,19968.00
2018-08-17T09:24:32.154Z,19392.00
2018-08-17T09:25:32.137Z,20384.00
2018-08-17T09:26:32.117Z,23456.00
2018-08-17T09:27:32.102Z,29344.00
2018-08-17T09:28:32.085Z,33888.00
2018-08-17T09:29:32.061Z,34496.00
2018-08-17T09:30:32.043Z,33248.00
2018-08-17T09:31:32.059Z,31616.00
2018-08-17T09:32:32.215Z,30336.00
2018-08-17T09:33:32.188Z,29504.00
2018-08-17T09:34:31.967Z,29152.00
2018-08-17T09:35:31.950Z,28480.00
2018-08-17T09:36:31.929Z,27680.00
2018-08-17T09:37:32.114Z,27456.00
2018-08-17T09:38:31.895Z,27936.00
2018-08-17T09:39:32.073Z,28288.00
2018-08-17T09:40:32.056Z,27648.00
2018-08-17T09:41:32.067Z,25792.00
2018-08-17T09:42:31.818Z,22976.00
2018-08-17T09:43:32.006Z,20736.00
2018-08-17T09:44:31.978Z,18496.00
2018-08-17T09:45:31.961Z,17568.00
2018-08-17T09:46:31.942Z,17824.00
2018-08-17T09:47:31.919Z,18688.00
2018-08-17T09:48:31.905Z,19968.00
2018-08-17T09:49:34.501Z,20992.00
2018-08-17T09:50:31.658Z,21376.00
2018-08-17T09:51:31.643Z,21216.00
2018-08-17T09:52:32.123Z,21568.00
2018-08-17T09:53:31.600Z,22528.00
2018-08-17T09:54:31.578Z,23232.00
2018-08-17T09:55:31.566Z,23456.00
2018-08-17T09:56:31.741Z,23200.00
2018-08-17T09:57:34.161Z,22944.00
2018-08-17T09:58:31.500Z,22688.00
2018-08-17T09:59:31.478Z,23296.00
2018-08-17T10:00:31.460Z,24320.00
2018-08-17T10:01:31.436Z,24512.00
2018-08-17T10:02:31.417Z,24256.00
2018-08-17T10:03:31.398Z,24384.00
2018-08-17T10:04:31.377Z,24864.00
2018-08-17T10:05:31.363Z,25376.00
2018-08-17T10:06:31.339Z,25376.00
2018-08-17T10:07:31.321Z,25184.00
2018-08-17T10:08:31.298Z,25856.00
2018-08-17T10:09:31.273Z,27360.00
2018-08-17T10:10:31.253Z,28544.00
2018-08-17T10:11:31.233Z,29952.00
2018-08-17T10:12:31.213Z,32224.00
2018-08-17T10:13:31.198Z,33440.00
2018-08-17T10:14:31.173Z,33376.00
2018-08-17T10:15:31.152Z,33312.00
2018-08-17T10:16:31.130Z,33152.00
2018-08-17T10:17:31.110Z,33216.00
2018-08-17T10:18:31.090Z,33280.00
2018-08-17T10:19:31.070Z,33568.00
2018-08-17T10:20:31.051Z,34368.00
2018-08-17T10:21:31.476Z,35904.00
2018-08-17T10:22:31.013Z,36992.00
2018-08-17T10:23:31.006Z,37376.00
2018-08-17T10:24:30.973Z,37280.00
2018-08-17T10:25:30.973Z,37216.00
2018-08-17T10:26:30.931Z,37504.00
2018-08-17T10:27:30.911Z,36064.00
2018-08-17T10:28:30.894Z,34016.00
2018-08-17T10:29:30.870Z,32384.00
2018-08-17T10:30:30.850Z,32800.00
2018-08-17T10:31:30.833Z,34752.00
2018-08-17T10:32:30.810Z,36352.00
2018-08-17T10:33:30.791Z,37504.00
2018-08-17T10:34:30.771Z,33888.00
2018-08-17T10:35:30.751Z,31104.00
2018-08-17T10:36:30.732Z,30048.00
2018-08-17T10:37:30.711Z,31456.00
2018-08-17T10:38:30.697Z,34048.00
2018-08-17T10:39:30.672Z,33920.00
2018-08-17T10:40:30.652Z,33248.00
2018-08-17T10:41:30.632Z,32896.00
2018-08-17T10:42:30.613Z,35552.00
2018-08-17T10:43:30.595Z,39776.00
2018-08-17T10:44:30.573Z,43008.00
2018-08-17T10:45:30.553Z,44896.00
2018-08-17T10:46:30.533Z,47104.00
2018-08-17T10:47:30.516Z,49184.00
2018-08-17T10:48:30.494Z,51936.00
2018-08-17T10:49:30.476Z,60192.00
2018-08-17T10:50:30.464Z,82304.00
2018-08-17T10:51:30.642Z,81440.00
2018-08-17T10:52:30.620Z,78944.00
2018-08-17T10:53:30.398Z,61024.00
2018-08-17T10:56:37.048Z,43264.00
2018-08-17T10:57:36.828Z,38176.00
2018-08-17T10:58:37.016Z,33696.00
2018-08-17T10:59:36.791Z,29312.00
2018-08-17T11:00:36.974Z,25248.00
2018-08-17T11:01:36.754Z,22016.00
2018-08-17T11:02:36.735Z,19520.00
2018-08-17T11:03:36.723Z,17696.00
2018-08-17T11:04:36.702Z,16652.00
2018-08-17T11:05:36.678Z,16536.00
2018-08-17T11:06:36.864Z,16996.00
2018-08-17T11:07:36.641Z,17568.00
2018-08-17T11:08:39.494Z,17536.00
2018-08-17T11:09:36.804Z,15948.00
2018-08-17T11:10:36.581Z,13760.00
2018-08-17T11:11:36.561Z,11856.00
2018-08-17T11:12:36.542Z,10796.00
2018-08-17T11:13:36.568Z,10460.00
2018-08-17T11:14:40.133Z,11208.00
2018-08-17T11:15:36.495Z,12696.00
2018-08-17T11:16:37.473Z,14408.00
2018-08-17T11:17:36.441Z,15984.00
2018-08-17T11:18:36.421Z,16828.00
2018-08-17T11:19:36.400Z,16756.00
2018-08-17T11:20:36.380Z,15892.00
2018-08-17T11:21:36.358Z,14360.00
2018-08-17T11:22:36.342Z,15884.00
2018-08-17T11:23:36.317Z,18432.00
2018-08-17T11:24:36.298Z,21952.00
2018-08-17T11:25:36.273Z,22656.00
2018-08-17T11:26:36.254Z,17952.00
2018-08-17T11:27:36.234Z,14872.00
2018-08-17T11:28:36.216Z,11248.00
2018-08-17T11:29:36.393Z,9060.00
2018-08-17T11:30:36.376Z,8900.00
2018-08-17T11:31:36.154Z,9176.00
2018-08-17T11:32:36.330Z,9020.00
2018-08-17T11:33:36.109Z,9040.00
2018-08-17T11:34:36.086Z,7512.00
2018-08-17T11:35:36.069Z,5848.00
2018-08-17T11:36:36.045Z,5084.00
2018-08-17T11:37:36.021Z,5052.00
2018-08-17T11:38:35.998Z,5028.00
2018-08-17T11:39:35.982Z,5104.00
2018-08-17T11:40:35.959Z,5200.00
2018-08-17T11:41:35.980Z,5424.00
2018-08-17T11:42:35.911Z,6000.00
2018-08-17T11:43:38.923Z,7288.00
2018-08-17T11:44:36.070Z,9632.00
2018-08-17T11:45:36.047Z,13528.00
2018-08-17T11:46:36.026Z,19616.00
2018-08-17T11:47:35.801Z,27520.00
2018-08-17T11:48:35.790Z,35840.00
2018-08-17T11:49:35.755Z,42784.00
2018-08-17T11:50:35.733Z,44288.00
2018-08-17T11:51:35.716Z,42496.00
2018-08-17T11:52:35.689Z,42272.00
2018-08-17T11:53:35.773Z,38624.00
2018-08-17T11:54:35.644Z,36704.00
2018-08-17T11:55:35.622Z,34944.00
2018-08-17T11:56:35.600Z,34080.00
2018-08-17T11:57:35.578Z,33824.00
2018-08-17T11:58:35.556Z,33728.00
2018-08-17T11:59:35.534Z,33824.00
2018-08-17T12:00:35.515Z,34624.00
2018-08-17T12:01:35.495Z,36032.00
2018-08-17T12:02:35.479Z,37984.00
2018-08-17T12:03:35.449Z,39232.00
2018-08-17T12:04:35.426Z,38944.00
2018-08-17T12:05:35.402Z,37856.00
2018-08-17T12:06:35.381Z,36800.00
2018-08-17T12:07:35.363Z,35328.00
2018-08-17T12:08:35.347Z,33536.00
2018-08-17T12:09:35.322Z,31456.00
2018-08-17T12:12:02.223Z,28576.00
2018-08-17T12:14:24.696Z,34048.00
2018-08-17T12:15:23.866Z,37664.00
2018-08-17T12:16:23.890Z,41344.00
2018-08-17T12:17:23.824Z,45760.00
2018-08-17T12:18:23.802Z,47872.00
2018-08-17T12:19:23.779Z,51328.00
2018-08-17T12:20:23.760Z,54496.00
2018-08-17T12:21:23.747Z,54592.00
2018-08-17T12:22:23.725Z,54560.00
2018-08-17T12:23:23.696Z,56128.00
2018-08-17T12:24:23.958Z,60384.00
2018-08-17T12:25:23.656Z,87552.00
2018-08-17T12:26:23.637Z,82176.00